Time;durP1;ratioP1;P1;durP2;ratioP2;P2;SDS_P1;SDS_P2;PMS_P1;PMS_P2;Temp;Humidity;BMP_temperature;BMP_pressure;BME280_temperature;BME280_humidity;BME280_pressure;Samples;Min_cycle;Max_cycle;Signal;HPM_P1;HPM_P2
2022/06/11 00:01:55;;;;;;;4.55;2.78;;;24.80;63.40;;;;;;6215769;23;20050;-84
2022/06/11 00:04:47;;;;;;;2.53;1.80;;;24.80;63.70;;;;;;6215304;23;20376;-84
2022/06/11 00:07:17;;;;;;;4.10;2.42;;;24.80;64.10;;;;;;6208842;23;20088;-83
2022/06/11 00:09:42;;;;;;;;;;;24.80;64.00;;;;;;6215496;23;20011;-82
2022/06/11 00:12:10;;;;;;;3.22;1.90;;;24.80;64.60;;;;;;6214015;23;19928;-83
2022/06/11 00:14:37;;;;;;;2.72;1.70;;;24.80;64.40;;;;;;6214691;23;20017;-83
2022/06/11 00:17:05;;;;;;;2.15;1.77;;;24.80;64.70;;;;;;6214754;23;20017;-82
2022/06/11 00:19:31;;;;;;;1.77;1.40;;;24.80;64.70;;;;;;6213272;23;20013;-83
2022/06/11 00:21:57;;;;;;;2.55;1.58;;;24.80;64.70;;;;;;6211488;23;20008;-83
2022/06/11 00:24:25;;;;;;;2.53;1.45;;;24.80;64.80;;;;;;6212770;23;20424;-83
2022/06/11 00:26:52;;;;;;;1.65;1.20;;;24.70;64.90;;;;;;6213582;23;20428;-82
2022/06/11 00:29:20;;;;;;;1.90;1.45;;;24.70;65.30;;;;;;6215230;23;20058;-83
2022/06/11 00:31:46;;;;;;;4.63;1.50;;;24.70;65.50;;;;;;6215479;23;20449;-83
2022/06/11 00:34:12;;;;;;;3.53;1.20;;;24.70;65.60;;;;;;6214735;23;20012;-83
2022/06/11 00:36:38;;;;;;;1.60;1.10;;;24.60;65.80;;;;;;6214761;23;20511;-83
2022/06/11 00:39:06;;;;;;;1.40;1.10;;;24.70;65.80;;;;;;6214681;23;20009;-83
2022/06/11 00:41:35;;;;;;;1.35;1.10;;;24.60;65.90;;;;;;6214922;23;20000;-86
2022/06/11 00:44:01;;;;;;;2.40;1.27;;;24.60;66.10;;;;;;6188675;23;20013;-85
2022/06/11 00:46:45;;;;;;;2.08;1.10;;;24.60;66.40;;;;;;6214610;23;20077;-87
2022/06/11 00:49:22;;;;;;;2.10;1.25;;;24.60;66.90;;;;;;6215666;23;20004;-84
2022/06/11 00:51:51;;;;;;;3.05;1.05;;;24.60;66.90;;;;;;6214848;23;20036;-84
2022/06/11 00:54:23;;;;;;;2.58;1.05;;;24.50;66.80;;;;;;6214916;23;20014;-85
2022/06/11 00:56:54;;;;;;;2.28;1.40;;;24.50;67.30;;;;;;6214526;23;20423;-82
2022/06/11 00:59:31;;;;;;;3.25;1.55;;;24.50;67.50;;;;;;6215560;23;20008;-82
2022/06/11 01:01:57;;;;;;;2.17;1.67;;;24.50;67.50;;;;;;6214737;23;20000;-82
2022/06/11 01:04:52;;;;;;;5.25;2.15;;;24.40;67.40;;;;;;6214878;23;20008;-83
2022/06/11 01:07:40;;;;;;;4.43;2.05;;;24.40;67.50;;;;;;6203326;23;20068;-83
2022/06/11 01:10:06;;;;;;;5.82;2.78;;;24.30;67.80;;;;;;6215119;23;20004;-83
2022/06/11 01:12:41;;;;;;;4.78;2.67;;;24.10;67.70;;;;;;6214360;23;20004;-83
2022/06/11 01:15:18;;;;;;;6.72;2.67;;;23.80;68.90;;;;;;6214213;23;20005;-83
2022/06/11 01:18:03;;;;;;;4.70;2.33;;;23.50;69.10;;;;;;6213768;23;20000;-83
2022/06/11 01:20:39;;;;;;;3.85;2.40;;;23.40;69.80;;;;;;6214044;23;20009;-83
2022/06/11 01:23:37;;;;;;;4.75;2.15;;;23.40;69.50;;;;;;6213982;23;20075;-82
2022/06/11 01:26:28;;;;;;;5.82;2.60;;;23.30;69.90;;;;;;6186962;23;20368;-82
2022/06/11 01:29:20;;;;;;;2.88;1.70;;;23.20;70.00;;;;;;6213658;23;20000;-83
2022/06/11 01:31:57;;;;;;;3.15;2.28;;;23.30;70.00;;;;;;6213710;23;20011;-83
2022/06/11 01:34:41;;;;;;;2.90;2.15;;;23.30;69.60;;;;;;6214559;23;20009;-83
2022/06/11 01:37:15;;;;;;;3.17;2.40;;;23.30;69.30;;;;;;6213868;23;20004;-83
2022/06/11 01:39:43;;;;;;;3.72;2.70;;;23.30;69.10;;;;;;6216148;23;20051;-82
2022/06/11 01:42:43;;;;;;;3.20;2.50;;;23.30;68.90;;;;;;6216180;23;20366;-84
2022/06/11 01:45:15;;;;;;;3.30;2.58;;;23.30;68.70;;;;;;6200160;23;20008;-85
2022/06/11 01:47:42;;;;;;;5.07;3.20;;;23.20;68.70;;;;;;6216458;23;20030;-85
2022/06/11 01:50:11;;;;;;;3.78;2.67;;;23.20;68.80;;;;;;6216612;23;20076;-85
2022/06/11 01:52:55;;;;;;;5.45;3.10;;;23.20;68.90;;;;;;6216603;23;20487;-83
2022/06/11 01:55:37;;;;;;;4.72;3.55;;;23.10;69.10;;;;;;6216517;23;20004;-82
2022/06/11 01:58:21;;;;;;;5.05;3.00;;;23.10;69.30;;;;;;6216790;23;20009;-81
2022/06/11 02:01:05;;;;;;;4.13;2.75;;;23.10;69.70;;;;;;6216723;23;20051;-81
2022/06/11 02:03:46;;;;;;;3.40;2.92;;;23.00;69.30;;;;;;6216486;23;20028;-81
2022/06/11 02:06:30;;;;;;;3.20;2.50;;;23.00;69.00;;;;;;6215579;23;20031;-83
2022/06/11 02:08:56;;;;;;;4.65;2.83;;;23.10;68.90;;;;;;6216675;23;20079;-82
2022/06/11 02:11:40;;;;;;;4.82;3.55;;;23.10;69.00;;;;;;6216362;23;20036;-82
2022/06/11 02:14:18;;;;;;;4.78;2.88;;;23.20;69.00;;;;;;6215966;23;19997;-84
2022/06/11 02:16:50;;;;;;;3.47;2.55;;;23.20;69.20;;;;;;6215567;23;20000;-84
2022/06/11 02:19:23;;;;;;;3.50;2.90;;;23.20;68.90;;;;;;6216666;23;20001;-84
2022/06/11 02:21:59;;;;;;;3.83;2.72;;;23.20;68.60;;;;;;6215608;23;20000;-85
2022/06/11 02:24:32;;;;;;;3.97;2.85;;;23.20;68.40;;;;;;6216189;23;20327;-81
2022/06/11 02:27:02;;;;;;;3.70;2.90;;;23.30;68.30;;;;;;6216227;23;20003;-82
2022/06/11 02:29:31;;;;;;;3.85;3.00;;;23.20;68.00;;;;;;6189598;23;20004;-82
2022/06/11 02:32:02;;;;;;;3.38;2.30;;;23.30;67.90;;;;;;6215277;23;20339;-82
2022/06/11 02:34:28;;;;;;;3.55;2.10;;;23.30;67.90;;;;;;6215681;23;20005;-81
2022/06/11 02:37:05;;;;;;;4.38;2.22;;;23.30;67.70;;;;;;6216176;23;20008;-81
2022/06/11 02:39:37;;;;;;;2.88;2.10;;;23.40;67.70;;;;;;6215868;23;20091;-81
2022/06/11 02:42:06;;;;;;;4.13;2.50;;;23.40;67.70;;;;;;6215496;23;20009;-81
2022/06/11 02:44:32;;;;;;;2.95;2.30;;;23.40;67.70;;;;;;6215967;23;20343;-81
2022/06/11 02:46:58;;;;;;;2.90;2.28;;;23.40;67.60;;;;;;6216450;23;19997;-81
2022/06/11 02:49:34;;;;;;;3.45;2.17;;;23.40;67.60;;;;;;6215696;23;20009;-81
2022/06/11 02:52:03;;;;;;;4.03;2.00;;;23.50;67.50;;;;;;6215500;23;20027;-81
2022/06/11 02:54:29;;;;;;;3.05;2.22;;;23.40;67.60;;;;;;6215974;23;20004;-82
2022/06/11 02:56:58;;;;;;;3.70;2.20;;;23.50;67.40;;;;;;6216133;23;20055;-83
2022/06/11 02:59:25;;;;;;;2.63;2.13;;;23.60;67.50;;;;;;6215366;23;20099;-85
2022/06/11 03:01:55;;;;;;;3.28;2.10;;;23.60;67.80;;;;;;6215918;23;20047;-81
2022/06/11 03:04:24;;;;;;;3.17;2.10;;;23.60;67.80;;;;;;6215038;23;20431;-83
2022/06/11 03:06:50;;;;;;;3.72;2.20;;;23.50;68.00;;;;;;6215652;23;20000;-83
2022/06/11 03:09:20;;;;;;;3.10;2.35;;;23.50;68.10;;;;;;6215463;23;20035;-82
2022/06/11 03:11:47;;;;;;;5.35;2.25;;;23.40;68.20;;;;;;6215775;23;20023;-82
2022/06/11 03:14:14;;;;;;;3.03;2.17;;;23.40;68.40;;;;;;6215074;23;20005;-82
2022/06/11 03:16:41;;;;;;;4.40;2.22;;;23.30;68.50;;;;;;6216269;23;20001;-82
2022/06/11 03:19:08;;;;;;;3.92;2.20;;;23.40;68.80;;;;;;6215614;23;20284;-82
2022/06/11 03:21:34;;;;;;;3.92;2.67;;;23.30;68.70;;;;;;6215346;23;20001;-82
2022/06/11 03:24:00;;;;;;;2.75;1.98;;;23.20;69.00;;;;;;6214591;23;20023;-84
2022/06/11 03:26:26;;;;;;;2.67;2.20;;;23.20;69.00;;;;;;6216192;23;20020;-84
2022/06/11 03:28:52;;;;;;;2.35;2.08;;;23.20;69.10;;;;;;6215785;23;20004;-84
2022/06/11 03:31:17;;;;;;;2.30;2.00;;;23.10;69.20;;;;;;6215595;23;20123;-83
2022/06/11 03:33:43;;;;;;;3.22;1.95;;;23.20;69.50;;;;;;6215739;23;20001;-81
2022/06/11 03:36:12;;;;;;;3.45;2.53;;;23.10;69.30;;;;;;6215907;23;20494;-82
2022/06/11 03:38:39;;;;;;;2.83;2.05;;;23.10;69.50;;;;;;6215213;23;20030;-82
2022/06/11 03:41:06;;;;;;;3.45;2.47;;;23.10;69.10;;;;;;6215672;23;19996;-81
2022/06/11 03:43:32;;;;;;;3.00;2.22;;;23.20;69.50;;;;;;6186967;23;20099;-81
2022/06/11 03:45:59;;;;;;;3.45;2.53;;;23.10;69.40;;;;;;6215273;23;20034;-81
2022/06/11 03:48:28;;;;;;;2.50;2.10;;;23.10;69.70;;;;;;6213803;23;20012;-81
2022/06/11 03:50:56;;;;;;;3.10;2.60;;;23.10;69.40;;;;;;6215936;23;19997;-82
2022/06/11 03:53:22;;;;;;;3.67;2.42;;;23.10;70.10;;;;;;6214712;23;20083;-82
2022/06/11 03:55:48;;;;;;;4.03;2.47;;;23.00;69.70;;;;;;6215522;23;20447;-82
2022/06/11 03:58:14;;;;;;;3.72;2.67;;;23.10;69.50;;;;;;6214445;23;20001;-81
2022/06/11 04:03:26;;;;;;;4.43;2.60;;;23.10;69.30;;;;;;6215406;23;20088;-82
2022/06/11 04:05:53;;;;;;;7.03;3.35;;;23.20;69.30;;;;;;6214876;23;20439;-82
2022/06/11 04:08:22;;;;;;;3.20;2.35;;;23.10;69.60;;;;;;6215178;23;19996;-83
2022/06/11 04:10:48;;;;;;;3.13;2.40;;;23.10;69.60;;;;;;6214594;23;20036;-81
2022/06/11 04:13:15;;;;;;;3.95;2.95;;;23.10;69.40;;;;;;6213938;23;20058;-83
2022/06/11 04:15:42;;;;;;;4.25;2.50;;;23.10;69.20;;;;;;6189007;23;20091;-84
2022/06/11 04:18:21;;;;;;;3.75;2.60;;;23.20;69.20;;;;;;6214495;23;20024;-82
2022/06/11 04:20:47;;;;;;;4.60;2.22;;;23.20;69.20;;;;;;6213644;23;20443;-82
2022/06/11 04:23:12;;;;;;;2.70;2.00;;;23.20;69.00;;;;;;6214721;23;20004;-82
2022/06/11 04:25:38;;;;;;;4.22;2.50;;;23.20;68.80;;;;;;6214472;23;20028;-82
2022/06/11 04:28:04;;;;;;;4.90;2.58;;;23.20;68.80;;;;;;6214606;23;20000;-81
2022/06/11 04:30:35;;;;;;;4.95;2.53;;;23.20;69.10;;;;;;6213635;23;20004;-81
2022/06/11 04:33:01;;;;;;;2.30;2.03;;;23.20;68.90;;;;;;6214959;23;20076;-82
2022/06/11 04:35:27;;;;;;;2.35;2.15;;;23.20;68.80;;;;;;6214165;23;20035;-81
2022/06/11 04:37:52;;;;;;;2.40;2.20;;;23.20;68.60;;;;;;6215291;23;20429;-84
2022/06/11 04:40:18;;;;;;;3.88;2.30;;;23.20;68.30;;;;;;6214069;23;20032;-80
2022/06/11 04:42:44;;;;;;;3.22;2.50;;;23.20;68.30;;;;;;6213719;23;20019;-83
2022/06/11 04:45:12;;;;;;;4.10;2.50;;;23.20;68.20;;;;;;6213518;23;20043;-80
2022/06/11 04:47:39;;;;;;;4.25;2.80;;;23.10;67.90;;;;;;6213785;23;20000;-81
2022/06/11 04:50:06;;;;;;;2.88;2.00;;;23.10;68.00;;;;;;6214355;23;20001;-77
2022/06/11 04:52:32;;;;;;;2.75;1.90;;;23.10;68.00;;;;;;6212839;23;20394;-87
2022/06/11 04:54:57;;;;;;;2.78;2.45;;;23.10;68.10;;;;;;6214018;23;20411;-82
2022/06/11 04:57:24;;;;;;;3.58;2.33;;;23.20;68.30;;;;;;6214695;23;20091;-80
2022/06/11 04:59:50;;;;;;;2.78;2.17;;;23.20;68.50;;;;;;6210883;23;20293;-84
2022/06/11 05:02:16;;;;;;;2.92;2.20;;;23.30;67.80;;;;;;6214643;23;20425;-85
2022/06/11 05:04:42;;;;;;;3.08;2.63;;;23.30;67.30;;;;;;6214847;23;20011;-88
2022/06/11 05:07:08;;;;;;;3.15;2.10;;;23.40;67.30;;;;;;6188715;23;20084;-87
2022/06/11 05:09:34;;;;;;;3.05;2.20;;;23.40;68.10;;;;;;6213796;23;20000;-87
2022/06/11 05:12:00;;;;;;;4.43;2.70;;;23.50;67.90;;;;;;6214688;23;20032;-87
2022/06/11 05:14:26;;;;;;;3.25;2.55;;;23.40;66.40;;;;;;6216887;23;20080;-86
2022/06/11 05:16:56;;;;;;;6.00;4.60;;;23.50;67.00;;;;;;6217733;23;20392;-86
2022/06/11 05:19:23;;;;;;;5.72;3.78;;;23.50;65.00;;;;;;6215876;23;20012;-85
2022/06/11 05:21:50;;;;;;;5.68;3.40;;;23.40;65.30;;;;;;6216023;23;20327;-86
2022/06/11 05:24:16;;;;;;;3.80;3.05;;;23.50;65.40;;;;;;6190606;23;20001;-85
2022/06/11 05:26:54;;;;;;;3.88;2.97;;;23.40;65.50;;;;;;6217034;23;20431;-88
2022/06/11 05:29:25;;;;;;;4.50;2.72;;;23.50;65.70;;;;;;6216116;23;20455;-88
2022/06/11 05:31:52;;;;;;;4.72;3.25;;;23.50;66.00;;;;;;6216896;23;20080;-87
2022/06/11 05:34:19;;;;;;;5.55;2.90;;;23.60;66.20;;;;;;6190445;23;20092;-87
2022/06/11 05:36:46;;;;;;;5.38;3.05;;;23.60;67.20;;;;;;6216668;23;20126;-85
2022/06/11 05:39:12;;;;;;;5.13;3.22;;;23.70;67.20;;;;;;6216461;23;20099;-86
2022/06/11 05:41:38;;;;;;;4.57;3.22;;;23.80;67.40;;;;;;6218836;23;20412;-84
2022/06/11 05:44:04;;;;;;;3.65;2.80;;;23.80;67.30;;;;;;6217739;23;20029;-84
2022/06/11 05:46:31;;;;;;;5.10;3.30;;;23.80;67.40;;;;;;6216981;23;20001;-86
2022/06/11 05:49:01;;;;;;;3.80;2.83;;;23.90;67.70;;;;;;6216239;23;20040;-85
2022/06/11 05:51:40;;;;;;;3.88;2.60;;;23.90;66.60;;;;;;6216329;23;20008;-84
2022/06/11 05:54:13;;;;;;;3.30;2.35;;;23.90;65.70;;;;;;6216946;23;20000;-84
2022/06/11 05:56:39;;;;;;;3.58;2.42;;;23.90;65.40;;;;;;6216881;23;20061;-84
2022/06/11 05:59:12;;;;;;;4.38;2.42;;;23.90;65.40;;;;;;6216513;23;20000;-83
2022/06/11 06:01:40;;;;;;;4.72;2.15;;;24.00;65.20;;;;;;6217006;23;20383;-83
2022/06/11 06:04:07;;;;;;;6.15;2.90;;;24.10;65.30;;;;;;6216178;23;20062;-84
2022/06/11 06:06:33;;;;;;;3.65;2.20;;;24.10;64.40;;;;;;6216653;23;20055;-83
2022/06/11 06:08:58;;;;;;;3.45;1.95;;;24.10;64.80;;;;;;6216393;23;20059;-84
2022/06/11 06:11:25;;;;;;;3.85;2.13;;;24.20;64.60;;;;;;6217068;23;20396;-80
2022/06/11 06:13:52;;;;;;;2.58;1.45;;;24.20;64.50;;;;;;6216615;23;20428;-80
2022/06/11 06:16:23;;;;;;;1.88;1.55;;;24.30;64.70;;;;;;6217073;23;20007;-82
2022/06/11 06:18:50;;;;;;;3.65;2.08;;;24.30;64.50;;;;;;6218942;23;20027;-81
2022/06/11 06:21:19;;;;;;;2.63;1.63;;;24.40;64.70;;;;;;6234319;23;20001;-81
2022/06/11 06:23:45;;;;;;;3.35;2.28;;;24.40;64.60;;;;;;6228147;23;20001;-81
2022/06/11 06:26:10;;;;;;;2.40;1.50;;;24.40;65.10;;;;;;6203593;23;20098;-81
2022/06/11 06:28:36;;;;;;;4.38;2.60;;;24.50;64.70;;;;;;6224761;23;20001;-82
2022/06/11 06:31:04;;;;;;;2.10;1.25;;;24.50;65.10;;;;;;6218864;23;20026;-81
2022/06/11 06:33:30;;;;;;;3.60;2.45;;;24.50;64.50;;;;;;6218097;23;20032;-82
2022/06/11 06:36:00;;;;;;;2.50;1.40;;;24.60;63.80;;;;;;6216297;23;20028;-83
2022/06/11 06:38:27;;;;;;;4.20;1.40;;;24.60;64.00;;;;;;6216513;23;20005;-84
2022/06/11 06:40:53;;;;;;;2.65;0.80;;;24.70;62.70;;;;;;6214257;23;20009;-84
2022/06/11 06:43:19;;;;;;;1.65;1.05;;;24.70;63.20;;;;;;6216396;23;20394;-81
2022/06/11 06:45:45;;;;;;;1.00;0.60;;;24.70;63.00;;;;;;6216397;23;20469;-81
2022/06/11 06:48:14;;;;;;;2.30;1.25;;;24.80;62.70;;;;;;6189728;23;20001;-83
2022/06/11 06:50:40;;;;;;;2.53;0.97;;;24.80;62.30;;;;;;6216222;23;20030;-84
2022/06/11 06:53:06;;;;;;;3.25;0.88;;;24.80;62.10;;;;;;6216224;23;20259;-85
2022/06/11 06:55:32;;;;;;;0.82;0.77;;;24.80;61.90;;;;;;6216111;23;20211;-83
2022/06/11 06:57:58;;;;;;;2.85;0.88;;;24.80;61.10;;;;;;6215835;23;20005;-84
2022/06/11 07:00:24;;;;;;;3.75;1.38;;;24.90;61.30;;;;;;6211630;23;20028;-83
2022/06/11 07:02:53;;;;;;;1.88;1.13;;;24.90;60.90;;;;;;6215033;23;20000;-84
2022/06/11 07:05:19;;;;;;;1.40;0.82;;;25.00;60.90;;;;;;6214611;23;20001;-83
2022/06/11 07:07:47;;;;;;;2.72;1.02;;;25.10;61.10;;;;;;6214534;23;20453;-81
2022/06/11 07:10:14;;;;;;;1.13;0.85;;;25.10;60.70;;;;;;6214782;23;20004;-81
2022/06/11 07:12:40;;;;;;;1.88;1.05;;;25.10;60.00;;;;;;6214057;23;20005;-80
2022/06/11 07:15:06;;;;;;;1.58;0.93;;;25.00;58.80;;;;;;6215597;23;20126;-81
2022/06/11 07:17:37;;;;;;;1.60;0.88;;;25.10;59.70;;;;;;6215394;23;20000;-80
2022/06/11 07:20:12;;;;;;;1.08;0.80;;;25.10;59.60;;;;;;6215443;23;20364;-81
2022/06/11 07:22:43;;;;;;;1.88;0.82;;;25.20;59.30;;;;;;6216081;23;20027;-81
2022/06/11 07:25:10;;;;;;;2.15;0.77;;;25.20;59.70;;;;;;6216220;23;20470;-81
2022/06/11 07:27:39;;;;;;;1.35;0.90;;;25.30;59.80;;;;;;6215724;23;20051;-80
2022/06/11 07:30:09;;;;;;;3.00;0.93;;;25.30;59.50;;;;;;6215069;23;20055;-80
2022/06/11 07:32:37;;;;;;;1.17;0.90;;;25.40;59.30;;;;;;6213960;23;20000;-81
2022/06/11 07:35:08;;;;;;;1.10;0.82;;;25.40;58.50;;;;;;6216056;23;20008;-81
2022/06/11 07:37:35;;;;;;;1.67;1.17;;;25.40;58.50;;;;;;6211600;23;20073;-80
2022/06/11 07:40:02;;;;;;;1.23;0.68;;;25.40;57.90;;;;;;6215178;23;20011;-80
2022/06/11 07:42:28;;;;;;;1.15;0.70;;;25.40;58.00;;;;;;6214733;23;20012;-84
2022/06/11 07:44:54;;;;;;;2.67;1.30;;;25.50;58.20;;;;;;6215507;23;20059;-83
2022/06/11 07:47:53;;;;;;;1.65;1.00;;;25.50;58.10;;;;;;6215066;23;20431;-83
2022/06/11 07:50:07;;;;;;;3.25;1.10;;;25.60;58.10;;;;;;6214764;23;20458;-81
2022/06/11 07:52:32;;;;;;;1.35;0.77;;;25.60;58.00;;;;;;6215485;23;20529;-82
2022/06/11 07:54:58;;;;;;;2.05;1.30;;;25.70;57.50;;;;;;6215611;23;20040;-81
2022/06/11 07:57:24;;;;;;;1.45;1.05;;;25.70;57.90;;;;;;6215704;23;20008;-81
2022/06/11 07:59:50;;;;;;;2.70;0.88;;;25.80;57.30;;;;;;6215418;23;20528;-80
2022/06/11 08:02:15;;;;;;;1.73;0.93;;;25.80;56.80;;;;;;6215657;23;20001;-81
2022/06/11 08:04:41;;;;;;;2.33;0.82;;;25.90;57.10;;;;;;6215584;23;19996;-81
2022/06/11 08:07:07;;;;;;;3.55;0.93;;;25.90;56.50;;;;;;6189235;23;20024;-80
2022/06/11 08:20:14;;;;;;;1.63;1.00;;;25.90;56.20;;;;;;6266650;22;1372458;-80
2022/06/11 08:22:39;;;;;;;0.90;0.73;;;26.00;53.60;;;;;;6315442;22;20003;-79
2022/06/11 08:25:05;;;;;;;1.25;0.90;;;26.00;54.10;;;;;;6315897;22;20052;-79
2022/06/11 08:27:31;;;;;;;1.30;0.90;;;26.00;53.40;;;;;;6315719;22;20003;-80
2022/06/11 08:29:58;;;;;;;1.65;0.98;;;26.10;53.70;;;;;;6315694;22;19995;-80
2022/06/11 08:32:23;;;;;;;1.55;0.98;;;26.10;53.50;;;;;;6314433;22;20052;-81
2022/06/11 08:34:49;;;;;;;1.48;1.00;;;26.20;53.50;;;;;;6316022;22;19995;-80
2022/06/11 08:37:15;;;;;;;0.93;0.60;;;26.20;53.30;;;;;;6315752;22;19999;-81
2022/06/11 08:39:42;;;;;;;2.85;1.33;;;26.30;53.90;;;;;;6315434;22;20042;-81
2022/06/11 08:42:43;;;;;;;2.30;1.20;;;26.30;54.30;;;;;;6287743;22;20072;-81
2022/06/11 08:45:19;;;;;;;1.83;1.13;;;26.50;54.70;;;;;;6314767;22;20003;-81
2022/06/11 08:47:49;;;;;;;1.77;0.90;;;26.60;54.70;;;;;;6315828;22;20003;-81
2022/06/11 08:50:20;;;;;;;3.78;1.70;;;26.60;53.20;;;;;;6316041;22;20006;-83
2022/06/11 08:52:47;;;;;;;1.55;1.40;;;26.60;51.10;;;;;;6316371;22;20049;-83
2022/06/11 08:55:13;;;;;;;1.45;0.95;;;26.60;52.10;;;;;;6318688;22;20005;-83
2022/06/11 08:57:53;;;;;;;3.20;1.67;;;26.60;53.20;;;;;;6327685;22;19999;-83
2022/06/11 09:00:24;;;;;;;3.40;1.30;;;26.70;51.30;;;;;;6325575;22;20306;-83
2022/06/11 09:03:13;;;;;;;3.50;1.23;;;26.70;51.20;;;;;;6314914;22;20031;-83
2022/06/11 09:05:52;;;;;;;2.38;1.25;;;26.70;52.00;;;;;;6315387;22;20006;-83
2022/06/11 09:08:36;;;;;;;1.50;1.00;;;26.80;51.70;;;;;;6315105;22;20069;-83
2022/06/11 09:11:11;;;;;;;1.88;1.02;;;26.90;51.30;;;;;;6286586;22;20030;-83
2022/06/11 09:14:06;;;;;;;1.08;0.75;;;26.90;51.40;;;;;;6314761;22;20027;-83
2022/06/11 09:16:43;;;;;;;3.17;1.40;;;27.00;52.40;;;;;;6287647;22;20294;-83
2022/06/11 09:19:44;;;;;;;3.17;1.05;;;27.10;51.70;;;;;;6313331;22;20348;-83
2022/06/11 09:22:28;;;;;;;1.00;0.82;;;27.30;52.30;;;;;;6300691;22;20007;-83
2022/06/11 09:25:13;;;;;;;1.38;1.15;;;27.40;51.90;;;;;;6308613;22;20452;-84
2022/06/11 09:27:50;;;;;;;1.27;1.17;;;27.50;52.00;;;;;;6306578;22;19999;-84
2022/06/11 09:30:29;;;;;;;2.13;1.70;;;27.50;52.50;;;;;;6308054;22;20386;-83
2022/06/11 09:33:18;;;;;;;6.25;2.60;;;27.70;52.80;;;;;;6280677;22;20661;-83
2022/06/11 09:36:01;;;;;;;7.30;2.80;;;27.80;52.90;;;;;;6308554;22;20335;-83
2022/06/11 09:38:40;;;;;;;3.45;1.52;;;27.90;51.70;;;;;;6307876;22;20441;-83
2022/06/11 09:41:33;;;;;;;2.20;1.65;;;27.90;51.20;;;;;;6307546;22;20014;-83
2022/06/11 09:44:24;;;;;;;4.68;2.55;;;27.90;52.00;;;;;;6280999;22;20133;-83
2022/06/11 09:47:14;;;;;;;3.22;1.77;;;28.00;52.00;;;;;;6308462;22;20078;-83
2022/06/11 09:50:27;;;;;;;3.72;1.60;;;28.10;53.10;;;;;;6307981;22;19999;-83
2022/06/11 09:53:15;;;;;;;3.72;1.60;;;28.20;52.10;;;;;;6272990;22;20010;-85
2022/06/11 09:55:47;;;;;;;12.32;1.70;;;28.30;52.40;;;;;;6308617;22;20003;-84
2022/06/11 09:58:47;;;;;;;5.03;1.75;;;28.40;51.10;;;;;;6308515;22;20003;-84
2022/06/11 10:01:28;;;;;;;2.90;1.23;;;28.40;51.30;;;;;;6279962;22;20011;-83
2022/06/11 10:04:08;;;;;;;3.95;1.50;;;28.40;52.30;;;;;;6307821;22;20007;-83
2022/06/11 10:06:55;;;;;;;1.25;1.13;;;28.50;51.40;;;;;;6308078;22;20018;-83
2022/06/11 10:09:50;;;;;;;1.30;1.08;;;28.60;52.30;;;;;;6307893;22;20007;-81
2022/06/11 10:12:22;;;;;;;1.92;1.05;;;28.70;51.20;;;;;;6280628;22;20029;-80
2022/06/11 10:14:51;;;;;;;3.50;1.02;;;28.70;50.30;;;;;;6308315;22;20003;-80
2022/06/11 10:17:26;;;;;;;1.53;1.23;;;28.80;50.30;;;;;;6308218;22;19999;-80
2022/06/11 10:20:10;;;;;;;2.15;1.17;;;28.90;50.90;;;;;;6307578;22;20008;-80
2022/06/11 10:22:41;;;;;;;1.92;0.90;;;28.90;49.70;;;;;;6279676;22;20410;-80
2022/06/11 10:25:17;;;;;;;2.45;1.30;;;29.10;49.70;;;;;;6279605;22;20000;-80
2022/06/11 10:27:54;;;;;;;3.65;1.30;;;29.10;49.90;;;;;;6307636;22;20044;-79
2022/06/11 10:30:34;;;;;;;1.60;1.20;;;29.20;50.10;;;;;;6306416;22;19999;-80
2022/06/11 10:33:01;;;;;;;;;;;29.30;49.80;;;;;;6307351;22;20003;-79
2022/06/11 10:35:57;;;;;;;2.40;1.55;;;29.40;50.30;;;;;;6307568;22;19906;-80
2022/06/11 10:39:01;;;;;;;1.88;1.23;;;29.50;49.70;;;;;;6307338;22;20006;-80
2022/06/11 10:41:51;;;;;;;2.38;1.27;;;29.70;49.20;;;;;;6221325;22;20056;-80
2022/06/11 10:44:33;;;;;;;1.77;1.30;;;29.70;49.00;;;;;;6307175;22;20026;-80
2022/06/11 10:46:59;;;;;;;3.45;0.98;;;29.90;48.80;;;;;;6306908;22;20010;-81
2022/06/11 10:49:27;;;;;;;2.97;1.25;;;30.00;49.30;;;;;;6304988;22;20409;-81
2022/06/11 10:52:08;;;;;;;1.20;0.90;;;30.10;49.10;;;;;;6306277;22;20003;-81
2022/06/11 10:54:34;;;;;;;2.70;1.10;;;30.20;49.20;;;;;;6307186;22;20002;-80
2022/06/11 10:57:25;;;;;;;1.40;0.90;;;30.40;47.90;;;;;;6306361;22;19999;-80
2022/06/11 10:59:56;;;;;;;2.25;1.35;;;30.50;48.40;;;;;;6307462;22;19996;-80
2022/06/11 11:02:39;;;;;;;1.55;1.40;;;30.60;47.60;;;;;;6275218;22;20007;-80
2022/06/11 11:05:14;;;;;;;1.25;0.77;;;30.60;47.60;;;;;;6277654;22;20018;-80
2022/06/11 11:07:52;;;;;;;1.52;1.20;;;30.80;47.10;;;;;;6277627;22;20007;-80
2022/06/11 11:10:35;;;;;;;1.90;1.08;;;30.90;47.00;;;;;;6305122;22;20414;-80
2022/06/11 11:13:25;;;;;;;1.50;1.13;;;31.00;47.60;;;;;;6279453;22;20003;-80
2022/06/11 11:15:57;;;;;;;1.92;1.20;;;31.10;46.50;;;;;;6301351;22;20000;-82
2022/06/11 11:18:33;;;;;;;2.35;1.58;;;31.20;46.90;;;;;;6304647;22;20090;-82
2022/06/11 11:21:00;;;;;;;3.00;1.38;;;31.50;46.50;;;;;;6305323;22;20015;-82
2022/06/11 11:23:40;;;;;;;2.45;1.20;;;31.70;47.10;;;;;;6278621;22;20090;-83
2022/06/11 11:26:12;;;;;;;1.60;1.33;;;31.90;45.10;;;;;;6306130;22;20007;-84
2022/06/11 11:28:45;;;;;;;1.95;1.30;;;32.20;46.30;;;;;;6277211;22;20414;-83
2022/06/11 11:31:22;;;;;;;3.40;1.77;;;32.50;45.40;;;;;;6303293;22;19996;-84
2022/06/11 11:34:17;;;;;;;2.00;1.42;;;32.90;43.10;;;;;;6303185;22;20303;-83
2022/06/11 11:36:45;;;;;;;2.58;1.02;;;33.40;42.90;;;;;;6251480;22;20013;-83
2022/06/11 11:39:14;;;;;;;1.55;0.93;;;33.80;43.10;;;;;;6304023;22;20022;-84
2022/06/11 11:42:14;;;;;;;2.42;1.25;;;34.20;42.20;;;;;;6277639;22;20007;-83
2022/06/11 11:44:41;;;;;;;;;;;34.60;41.50;;;;;;6275914;22;20007;-85
2022/06/11 11:47:27;;;;;;;1.40;1.10;;;34.80;39.70;;;;;;6278819;22;19941;-84
2022/06/11 11:50:14;;;;;;;1.65;1.13;;;35.10;40.90;;;;;;6277456;22;20003;-88
2022/06/11 11:52:43;;;;;;;4.93;2.80;;;35.30;39.70;;;;;;6307746;22;19996;-89
2022/06/11 11:55:20;;;;;;;2.88;1.70;;;35.40;39.60;;;;;;6278968;22;20006;-88
2022/06/11 11:57:59;;;;;;;2.78;1.33;;;35.60;38.30;;;;;;6280285;22;20007;-84
2022/06/11 12:00:38;;;;;;;3.13;1.17;;;35.60;38.50;;;;;;6278907;22;20047;-85
2022/06/11 12:03:13;;;;;;;5.72;1.60;;;35.90;39.30;;;;;;6278748;22;20027;-86
2022/06/11 12:05:51;;;;;;;2.35;1.35;;;36.00;38.50;;;;;;6307326;22;20007;-87
2022/06/11 12:08:21;;;;;;;2.72;1.27;;;36.20;39.00;;;;;;6306574;22;20073;-86
2022/06/11 12:10:50;;;;;;;2.78;1.20;;;36.30;38.30;;;;;;6272270;22;20019;-88
2022/06/11 12:13:32;;;;;;;2.22;1.10;;;36.40;38.40;;;;;;6306891;22;20005;-87
2022/06/11 12:16:01;;;;;;;1.67;0.88;;;36.50;37.60;;;;;;6307122;22;20071;-87
2022/06/11 12:18:34;;;;;;;2.70;1.17;;;36.50;37.70;;;;;;6305554;22;20375;-87
2022/06/11 12:21:07;;;;;;;2.55;1.33;;;36.60;37.10;;;;;;6278295;22;20076;-85
2022/06/11 12:23:44;;;;;;;2.42;1.38;;;36.50;35.80;;;;;;6305278;22;20328;-86
2022/06/11 12:26:13;;;;;;;4.63;1.05;;;36.50;36.20;;;;;;6306464;22;19999;-87
2022/06/11 12:28:44;;;;;;;2.75;1.20;;;36.30;35.70;;;;;;6305618;22;19999;-86
2022/06/11 12:31:11;;;;;;;1.33;1.05;;;36.40;37.50;;;;;;6306825;22;20029;-86
2022/06/11 12:33:43;;;;;;;1.98;1.33;;;36.50;37.80;;;;;;6306566;22;19999;-85
2022/06/11 12:36:15;;;;;;;2.42;1.50;;;36.60;37.30;;;;;;6306577;22;19996;-89
2022/06/11 12:39:05;;;;;;;1.73;1.55;;;36.80;37.20;;;;;;6306907;22;20053;-88
2022/06/11 12:41:33;;;;;;;2.70;1.70;;;36.80;37.20;;;;;;6307023;22;20009;-87
2022/06/11 12:44:21;;;;;;;3.23;1.00;;;36.80;35.90;;;;;;6278934;22;20325;-88
2022/06/11 12:47:07;;;;;;;2.65;1.30;;;36.70;36.60;;;;;;6307423;22;20003;-86
2022/06/11 12:49:50;;;;;;;1.50;1.08;;;36.80;36.00;;;;;;6308479;22;20007;-88
2022/06/11 12:52:26;;;;;;;2.72;1.33;;;36.90;36.80;;;;;;6283795;22;20011;-88
2022/06/11 12:55:06;;;;;;;1.35;1.00;;;36.90;35.50;;;;;;6306743;22;20010;-86
2022/06/11 12:57:58;;;;;;;3.20;1.35;;;36.90;36.20;;;;;;6306729;22;20005;-87
2022/06/11 13:00:50;;;;;;;3.95;1.20;;;37.10;35.70;;;;;;6308543;22;19999;-86
2022/06/11 13:03:22;;;;;;;3.33;1.17;;;37.10;36.20;;;;;;6308766;22;20008;-88
2022/06/11 13:06:09;;;;;;;1.20;1.10;;;37.20;35.90;;;;;;6280318;22;20023;-84
2022/06/11 13:08:41;;;;;;;1.80;1.10;;;37.10;35.00;;;;;;6307518;22;20084;-86
2022/06/11 13:11:18;;;;;;;1.77;1.23;;;37.10;35.50;;;;;;6308347;22;19995;-86
2022/06/11 13:14:21;;;;;;;1.48;0.90;;;37.20;35.70;;;;;;6308243;22;19999;-88
2022/06/11 13:17:09;;;;;;;2.15;1.10;;;37.20;34.60;;;;;;6280972;22;20010;-87
2022/06/11 13:19:56;;;;;;;2.55;1.25;;;37.10;34.10;;;;;;6280573;22;20106;-85
2022/06/11 13:22:31;;;;;;;1.10;0.90;;;36.90;34.70;;;;;;6308371;22;20051;-86
2022/06/11 13:25:28;;;;;;;2.58;1.00;;;36.90;34.20;;;;;;6308148;22;20006;-87
2022/06/11 13:28:17;;;;;;;3.03;0.90;;;36.90;34.90;;;;;;6308365;22;20011;-88
2022/06/11 13:30:58;;;;;;;1.10;0.80;;;36.90;34.40;;;;;;6308884;22;20003;-86
2022/06/11 13:33:33;;;;;;;3.58;1.00;;;36.80;35.30;;;;;;6280991;22;20082;-85